Leesburg International Airport
KLEE : now visible

Airfield :











YOU CAN JOIN US ON...

 
LOGIN :

Register | Disclaimer

   EN    FR    IT 

 









Legend :    VFR   Marginal VFR   IFR   Intensive IFR   Very Intensive IFR
Visi :
Ceiling :
>= 8 km
>= 3000ft
5 to 8 km
1000 to 3000 ft
1500m to 5 km
500 to 1000 ft
800 to 1500m
200 to 500 ft
< 800m
< 200 ft
Symbols :   Thunderstorms  Fog  Heavy snow  Heavy precipitations  Wind > 20 kt






- Airport Elevation : 76 ft


KLEE - Leesburg International

CURRENT METAR :
  • 291453Z 09005KT 10SM CLR 17/08 A3001 RMK AO2 SLP160 T01670078 50002

EXPIRED METARs :
  • 291353Z 07003KT 10SM CLR 13/07 A3001 RMK AO2 SLP161 T01330072
  • 291253Z 04005KT 10SM CLR 09/06 A3000 RMK AO2 SLP158 T00940056
  • 291153Z 00000KT 10SM CLR 08/04 A3000 RMK AO2 SLP159 T00780044 10100 20072 53002

TAF KLEE
Valid from the 29 at 12:00 until the 30 at 12:00 UTC


291120Z 2912/3012 06004KT P6SM FEW250
FM291500 09005KT P6SM SCT035 SCT050
FM300000 06005KT P6SM VCSH SCT030 BKN050 BKN120
FM300500 VRB04KT P6SM VCSH SCT015 BKN025



MET'MAP, your aeronautical weather chart ! - Copyright ORBIFLY December 2007 - Disclaimer

ORBIFLY MET'MAP TEAM :

Programming & Development : Alexandra Zaïnal
Concept & original design : Baudouin d'Aumeries
Assistance for programming : Marc-Olivier Méhu
Technical & hardware support : Manuel Goepfert

Contact : metmap@orbifly.com




SOURCES & CREDITS :

   NOAA       Earth
Advisory